createdAt,value
2022-10-08T00:00:14.263Z,19.50
2022-10-08T00:01:08.294Z,18.30
2022-10-08T00:01:41.831Z,25.50
2022-10-08T00:02:15.478Z,15.90
2022-10-08T00:02:48.927Z,20.20
2022-10-08T00:03:23.855Z,20.70
2022-10-08T00:03:57.712Z,18.00
2022-10-08T00:04:30.756Z,18.60
2022-10-08T00:05:03.951Z,18.90
2022-10-08T00:05:36.804Z,17.30
2022-10-08T00:06:20.571Z,14.90
2022-10-08T00:06:53.547Z,18.90
2022-10-08T00:07:26.453Z,17.00
2022-10-08T00:07:59.426Z,15.50
2022-10-08T00:08:33.982Z,19.40
2022-10-08T00:09:07.662Z,16.50
2022-10-08T00:09:40.797Z,15.80
2022-10-08T00:10:13.920Z,14.60
2022-10-08T00:10:52.242Z,16.40
2022-10-08T00:11:26.886Z,19.20
2022-10-08T00:11:59.850Z,17.90
2022-10-08T00:12:32.767Z,16.30
2022-10-08T00:13:06.253Z,18.60
2022-10-08T00:13:42.960Z,17.60
2022-10-08T00:14:15.983Z,16.00
2022-10-08T00:14:49.037Z,15.00
2022-10-08T00:15:22.145Z,16.20
2022-10-08T00:15:57.145Z,16.80
2022-10-08T00:16:32.109Z,16.90
2022-10-08T00:17:05.146Z,15.80
2022-10-08T00:17:38.087Z,15.00
2022-10-08T00:18:11.075Z,17.70
2022-10-08T00:18:45.369Z,17.70
2022-10-08T00:19:18.422Z,19.40
2022-10-08T00:19:51.330Z,16.00
2022-10-08T00:20:24.272Z,15.50
2022-10-08T00:21:04.652Z,17.90
2022-10-08T00:21:38.532Z,14.40
2022-10-08T00:22:11.530Z,14.90
2022-10-08T00:22:44.946Z,18.60
2022-10-08T00:23:18.202Z,16.80
2022-10-08T00:23:52.277Z,14.80
2022-10-08T00:24:25.275Z,14.50
2022-10-08T00:24:58.268Z,14.00
2022-10-08T00:25:31.178Z,16.70
2022-10-08T00:26:07.503Z,16.60
2022-10-08T00:26:43.845Z,17.00
2022-10-08T00:27:17.382Z,18.10
2022-10-08T00:27:50.667Z,17.70
2022-10-08T00:28:23.691Z,14.50
2022-10-08T00:28:57.791Z,16.60
2022-10-08T00:29:30.791Z,18.30
2022-10-08T00:30:04.996Z,15.90
2022-10-08T00:30:39.976Z,15.60
2022-10-08T00:31:14.642Z,14.50
2022-10-08T00:31:49.578Z,16.20
2022-10-08T00:32:22.601Z,17.20
2022-10-08T00:32:59.800Z,13.90
2022-10-08T00:33:36.350Z,13.10
2022-10-08T00:34:10.645Z,12.40
2022-10-08T00:34:43.596Z,14.00
2022-10-08T00:35:16.442Z,14.70
2022-10-08T00:35:49.310Z,11.70
2022-10-08T00:36:23.404Z,12.10
2022-10-08T00:36:57.402Z,13.50
2022-10-08T00:37:30.370Z,17.00
2022-10-08T00:38:03.294Z,14.40
2022-10-08T00:38:36.571Z,14.50
2022-10-08T00:39:13.944Z,12.60
2022-10-08T00:39:46.961Z,18.40
2022-10-08T00:40:20.270Z,13.40
2022-10-08T00:40:53.356Z,17.00
2022-10-08T00:41:30.579Z,14.30
2022-10-08T00:42:03.597Z,13.90
2022-10-08T00:42:36.447Z,14.30
2022-10-08T00:43:16.484Z,16.30
2022-10-08T00:43:51.981Z,14.50
2022-10-08T00:44:43.761Z,13.60
2022-10-08T00:45:16.690Z,14.80
2022-10-08T00:45:50.280Z,13.30
2022-10-08T00:46:31.145Z,14.70
2022-10-08T00:47:04.101Z,14.50
2022-10-08T00:47:40.296Z,12.90
2022-10-08T00:48:15.878Z,16.00
2022-10-08T00:48:50.674Z,14.10
2022-10-08T00:49:25.404Z,14.00
2022-10-08T00:50:20.060Z,13.70
2022-10-08T00:50:53.171Z,16.50
2022-10-08T00:51:26.223Z,18.40
2022-10-08T00:51:59.312Z,19.90
2022-10-08T00:52:35.283Z,16.40
2022-10-08T00:53:10.356Z,20.00
2022-10-08T00:53:44.320Z,19.30
2022-10-08T00:54:18.307Z,15.60
2022-10-08T00:54:51.995Z,18.90
2022-10-08T00:55:28.849Z,18.30
2022-10-08T00:56:03.272Z,14.10
2022-10-08T00:56:37.441Z,17.40
2022-10-08T00:57:10.636Z,15.60
2022-10-08T00:57:44.165Z,17.60
2022-10-08T00:58:20.982Z,17.70
2022-10-08T00:58:53.902Z,24.30
2022-10-08T00:59:28.747Z,16.80
2022-10-08T01:00:08.404Z,26.00
2022-10-08T01:00:41.485Z,17.40
2022-10-08T01:01:14.608Z,16.40
2022-10-08T01:01:47.798Z,22.80
2022-10-08T01:02:21.270Z,16.20
2022-10-08T01:02:54.795Z,18.30
2022-10-08T01:03:27.805Z,19.20
2022-10-08T01:04:02.948Z,16.60
2022-10-08T01:04:36.843Z,20.90
2022-10-08T01:05:10.906Z,18.30
2022-10-08T01:06:02.641Z,16.50
2022-10-08T01:06:50.065Z,16.60
2022-10-08T01:07:25.511Z,15.00
2022-10-08T01:08:02.221Z,15.40
2022-10-08T01:08:38.491Z,18.50
2022-10-08T01:09:32.361Z,17.00
2022-10-08T01:10:16.376Z,13.70
2022-10-08T01:10:57.336Z,12.80
2022-10-08T01:11:49.290Z,13.90
2022-10-08T01:12:37.184Z,13.10
2022-10-08T01:13:22.840Z,11.70
2022-10-08T01:14:01.849Z,13.90
2022-10-08T01:14:50.754Z,11.60
2022-10-08T01:15:34.133Z,11.40
2022-10-08T01:16:13.274Z,10.80
2022-10-08T01:17:04.998Z,12.90
2022-10-08T01:17:52.107Z,13.10
2022-10-08T01:18:28.222Z,11.10
2022-10-08T01:19:19.718Z,11.20
2022-10-08T01:19:58.538Z,13.30
2022-10-08T01:20:42.225Z,12.10
2022-10-08T01:21:19.631Z,10.60
2022-10-08T01:21:52.455Z,10.40
2022-10-08T01:22:31.383Z,10.90
2022-10-08T01:23:23.205Z,11.10
2022-10-08T01:23:56.100Z,10.20
2022-10-08T01:24:51.944Z,12.60
2022-10-08T01:25:34.330Z,12.20
2022-10-08T01:26:07.321Z,15.20
2022-10-08T01:26:50.005Z,11.60
2022-10-08T01:27:26.083Z,10.70
2022-10-08T01:28:03.146Z,11.70
2022-10-08T01:28:41.115Z,12.10
2022-10-08T01:29:16.462Z,13.90
2022-10-08T01:29:50.388Z,12.80
2022-10-08T01:30:24.395Z,11.90
2022-10-08T01:31:04.900Z,12.60
2022-10-08T01:31:41.355Z,10.60
2022-10-08T01:32:16.504Z,12.90
2022-10-08T01:33:13.401Z,9.60
2022-10-08T01:33:51.108Z,13.70
2022-10-08T01:34:30.311Z,13.20
2022-10-08T01:35:06.002Z,10.80
2022-10-08T01:35:44.979Z,11.80
2022-10-08T01:36:20.048Z,12.20
2022-10-08T01:36:54.475Z,16.70
2022-10-08T01:37:32.098Z,12.70
2022-10-08T01:38:07.401Z,11.20
2022-10-08T01:38:45.635Z,10.00
2022-10-08T01:39:20.135Z,10.40
2022-10-08T01:39:54.569Z,10.60
2022-10-08T01:40:31.375Z,13.50
2022-10-08T01:41:06.800Z,11.50
2022-10-08T01:41:41.270Z,10.10
2022-10-08T01:42:15.464Z,10.00
2022-10-08T01:42:49.824Z,9.00
2022-10-08T01:43:24.238Z,12.80
2022-10-08T01:44:10.026Z,13.60
2022-10-08T01:44:48.409Z,12.30
2022-10-08T01:45:25.358Z,14.00
2022-10-08T01:46:02.135Z,10.20
2022-10-08T01:46:37.790Z,10.00
2022-10-08T01:47:13.522Z,12.10
2022-10-08T01:47:47.630Z,12.70
2022-10-08T01:48:23.856Z,9.90
2022-10-08T01:48:58.339Z,10.00
2022-10-08T01:49:34.374Z,10.40
2022-10-08T01:50:28.518Z,12.00
2022-10-08T01:51:06.988Z,9.60
2022-10-08T01:51:42.275Z,10.50
2022-10-08T01:52:20.423Z,11.50
2022-10-08T01:52:55.432Z,11.40
2022-10-08T01:53:29.190Z,10.40
2022-10-08T01:54:03.701Z,10.60
2022-10-08T01:54:38.312Z,10.00
2022-10-08T01:55:15.039Z,11.10
2022-10-08T01:55:53.635Z,12.50
2022-10-08T01:56:28.065Z,9.40
2022-10-08T01:57:03.150Z,12.60
2022-10-08T01:57:37.167Z,11.50
2022-10-08T01:58:14.195Z,10.40
2022-10-08T01:59:16.692Z,12.60
2022-10-08T01:59:52.784Z,8.30
2022-10-08T02:00:25.813Z,9.30
2022-10-08T02:01:03.217Z,8.50
2022-10-08T02:01:42.751Z,11.50
2022-10-08T02:02:15.762Z,9.00
2022-10-08T02:02:49.097Z,8.80
2022-10-08T02:03:22.543Z,10.00
2022-10-08T02:04:14.377Z,9.40
2022-10-08T02:04:47.879Z,10.60
2022-10-08T02:05:21.666Z,13.60
2022-10-08T02:05:55.063Z,10.40
2022-10-08T02:06:29.846Z,11.20
2022-10-08T02:07:10.593Z,10.60
2022-10-08T02:08:16.599Z,12.70
2022-10-08T02:08:49.784Z,10.60
2022-10-08T02:09:33.464Z,12.60
2022-10-08T02:10:06.518Z,12.20
2022-10-08T02:10:40.856Z,9.40
2022-10-08T02:11:13.900Z,11.50
2022-10-08T02:11:46.887Z,10.10
2022-10-08T02:12:20.921Z,10.70
2022-10-08T02:12:54.029Z,11.00
2022-10-08T02:13:27.097Z,8.10
2022-10-08T02:14:00.018Z,11.40
2022-10-08T02:14:34.359Z,11.80
2022-10-08T02:15:28.166Z,9.40
2022-10-08T02:16:08.574Z,10.80
2022-10-08T02:16:45.767Z,9.70
2022-10-08T02:17:18.741Z,9.20
2022-10-08T02:17:52.036Z,11.60
2022-10-08T02:18:35.422Z,9.60
2022-10-08T02:19:15.809Z,10.10
2022-10-08T02:19:53.332Z,16.20
2022-10-08T02:20:31.404Z,8.60
2022-10-08T02:21:06.254Z,11.90
2022-10-08T02:21:40.364Z,9.20
2022-10-08T02:22:16.311Z,8.60
2022-10-08T02:23:04.680Z,11.30
2022-10-08T02:23:43.667Z,10.80
2022-10-08T02:24:23.374Z,9.10
2022-10-08T02:25:01.109Z,10.10
2022-10-08T02:25:37.389Z,10.10
2022-10-08T02:26:13.174Z,11.60
2022-10-08T02:26:48.270Z,9.10
2022-10-08T02:27:26.214Z,9.10
2022-10-08T02:27:59.378Z,11.20
2022-10-08T02:28:32.493Z,8.00
2022-10-08T02:29:11.068Z,9.90
2022-10-08T02:29:52.552Z,8.70
2022-10-08T02:30:28.956Z,10.10
2022-10-08T02:31:14.663Z,10.40
2022-10-08T02:31:47.982Z,10.20
2022-10-08T02:32:23.937Z,9.30
2022-10-08T02:33:02.926Z,10.20
2022-10-08T02:33:48.176Z,11.30
2022-10-08T02:34:26.697Z,9.80
2022-10-08T02:35:07.633Z,11.60
2022-10-08T02:35:44.519Z,9.20
2022-10-08T02:36:20.135Z,8.90
2022-10-08T02:37:13.502Z,10.10
2022-10-08T02:37:51.392Z,10.90
2022-10-08T02:38:35.629Z,11.70
2022-10-08T02:39:10.619Z,8.90
2022-10-08T02:39:47.205Z,10.90
2022-10-08T02:40:20.790Z,8.70
2022-10-08T02:40:57.209Z,9.70
2022-10-08T02:41:34.755Z,8.40
2022-10-08T02:42:11.350Z,9.20
2022-10-08T02:42:46.873Z,7.60
2022-10-08T02:43:25.744Z,8.70
2022-10-08T02:44:00.081Z,8.80
2022-10-08T02:44:42.249Z,7.70
2022-10-08T02:45:27.173Z,8.20
2022-10-08T02:46:03.558Z,9.20
2022-10-08T02:46:38.865Z,7.70
2022-10-08T02:47:15.092Z,8.20
2022-10-08T02:47:50.190Z,10.10
2022-10-08T02:48:33.675Z,12.10
2022-10-08T02:49:09.439Z,10.10
2022-10-08T02:49:44.002Z,7.30
2022-10-08T02:50:19.495Z,9.40
2022-10-08T02:50:53.325Z,9.30
2022-10-08T02:51:28.199Z,8.40
2022-10-08T02:52:02.192Z,9.20
2022-10-08T02:52:38.992Z,13.10
2022-10-08T02:53:14.713Z,8.50
2022-10-08T02:53:49.731Z,8.90
2022-10-08T02:54:23.729Z,9.60
2022-10-08T02:55:00.702Z,12.20
2022-10-08T02:55:38.709Z,9.30
2022-10-08T02:56:32.109Z,8.50
2022-10-08T02:57:12.079Z,8.40
2022-10-08T02:57:46.756Z,9.10
2022-10-08T02:58:19.869Z,8.10
2022-10-08T02:58:52.896Z,7.90
2022-10-08T02:59:26.841Z,6.80
2022-10-08T02:59:59.956Z,10.20
2022-10-08T03:00:36.483Z,8.80
2022-10-08T03:01:15.653Z,10.70
2022-10-08T03:01:50.625Z,7.70
2022-10-08T03:02:27.980Z,7.10
2022-10-08T03:03:06.717Z,8.00
2022-10-08T03:03:45.881Z,11.80
2022-10-08T03:04:27.940Z,7.90
2022-10-08T03:05:02.512Z,9.00
2022-10-08T03:05:37.204Z,9.50
2022-10-08T03:06:11.646Z,8.20
2022-10-08T03:06:45.040Z,9.60
2022-10-08T03:07:18.005Z,7.40
2022-10-08T03:07:51.867Z,9.40
2022-10-08T03:08:25.121Z,10.10
2022-10-08T03:08:59.796Z,10.10
2022-10-08T03:09:34.746Z,8.50
2022-10-08T03:10:08.447Z,12.30
2022-10-08T03:10:42.430Z,8.60
2022-10-08T03:11:15.990Z,8.70
2022-10-08T03:11:49.371Z,7.70
2022-10-08T03:12:22.511Z,7.30
2022-10-08T03:13:00.559Z,8.20
2022-10-08T03:13:38.284Z,10.30
2022-10-08T03:14:13.186Z,6.90
2022-10-08T03:14:48.194Z,7.60
2022-10-08T03:15:21.211Z,9.30
2022-10-08T03:15:54.597Z,7.40
2022-10-08T03:16:32.014Z,10.60
2022-10-08T03:17:06.470Z,10.60
2022-10-08T03:17:41.942Z,8.60
2022-10-08T03:18:14.945Z,9.20
2022-10-08T03:18:48.758Z,9.40
2022-10-08T03:19:22.080Z,8.00
2022-10-08T03:19:55.032Z,9.10
2022-10-08T03:20:28.206Z,9.30
2022-10-08T03:21:01.670Z,8.70
2022-10-08T03:21:35.567Z,7.50
2022-10-08T03:22:08.396Z,8.90
2022-10-08T03:22:41.398Z,6.50
2022-10-08T03:23:16.824Z,10.00
2022-10-08T03:23:49.718Z,10.10
2022-10-08T03:24:22.919Z,7.90
2022-10-08T03:24:56.939Z,15.00
2022-10-08T03:25:30.276Z,9.60
2022-10-08T03:26:03.337Z,9.70
2022-10-08T03:26:36.258Z,11.80
2022-10-08T03:27:09.180Z,8.70
2022-10-08T03:27:42.104Z,10.00
2022-10-08T03:28:15.210Z,8.60
2022-10-08T03:28:48.387Z,10.90
2022-10-08T03:29:21.675Z,8.30
2022-10-08T03:29:57.510Z,8.80
2022-10-08T03:30:30.615Z,9.10
2022-10-08T03:31:05.115Z,8.30
2022-10-08T03:31:38.132Z,8.40
2022-10-08T03:32:11.067Z,9.30
2022-10-08T03:32:44.271Z,8.00
2022-10-08T03:33:17.688Z,7.00
2022-10-08T03:33:51.413Z,8.00
2022-10-08T03:34:27.568Z,16.20
2022-10-08T03:35:00.456Z,11.00
2022-10-08T03:35:33.713Z,9.00
2022-10-08T03:36:06.795Z,9.70
2022-10-08T03:36:39.785Z,8.30
2022-10-08T03:37:12.783Z,7.50
2022-10-08T03:37:45.751Z,8.30
2022-10-08T03:38:18.802Z,9.30
2022-10-08T03:38:52.153Z,10.80
2022-10-08T03:39:25.103Z,8.90
2022-10-08T03:39:58.075Z,9.00
2022-10-08T03:40:31.790Z,11.10
2022-10-08T03:41:04.838Z,9.70
2022-10-08T03:41:37.777Z,8.60
2022-10-08T03:42:10.898Z,8.60
2022-10-08T03:42:44.172Z,11.90
2022-10-08T03:43:17.488Z,11.00
2022-10-08T03:43:50.839Z,9.60
2022-10-08T03:44:23.709Z,10.00
2022-10-08T03:44:56.614Z,13.70
2022-10-08T03:45:29.624Z,10.70
2022-10-08T03:46:03.101Z,10.10
2022-10-08T03:46:36.185Z,10.10
2022-10-08T03:47:09.233Z,10.30
2022-10-08T03:47:42.259Z,9.80
2022-10-08T03:48:15.199Z,9.60
2022-10-08T03:48:48.947Z,12.00
2022-10-08T03:49:21.914Z,10.00
2022-10-08T03:49:54.936Z,12.90
2022-10-08T03:50:27.913Z,9.80
2022-10-08T03:51:02.292Z,11.10
2022-10-08T03:51:35.376Z,10.50
2022-10-08T03:52:08.434Z,10.30
2022-10-08T03:52:41.440Z,9.30
2022-10-08T03:53:14.898Z,9.60
2022-10-08T03:53:47.942Z,10.60
2022-10-08T03:54:20.912Z,11.10
2022-10-08T03:54:53.777Z,11.10
2022-10-08T03:55:26.681Z,14.50
2022-10-08T03:56:07.084Z,11.90
2022-10-08T03:56:40.799Z,8.60
2022-10-08T03:57:14.152Z,10.90
2022-10-08T03:57:47.082Z,10.20
2022-10-08T03:58:20.294Z,10.80
2022-10-08T03:58:57.355Z,11.40
2022-10-08T03:59:30.591Z,11.10
2022-10-08T04:00:04.033Z,9.90
2022-10-08T04:00:37.207Z,10.70
2022-10-08T04:01:17.184Z,15.90
2022-10-08T04:01:50.363Z,15.30
2022-10-08T04:02:23.747Z,15.10
2022-10-08T04:02:56.999Z,11.10
2022-10-08T04:03:30.469Z,13.30
2022-10-08T04:04:04.040Z,14.70
2022-10-08T04:04:37.020Z,12.00
2022-10-08T04:05:10.032Z,14.40
2022-10-08T04:05:48.783Z,12.10
2022-10-08T04:06:22.232Z,13.70
2022-10-08T04:06:55.203Z,10.20
2022-10-08T04:07:28.027Z,13.20
2022-10-08T04:08:00.854Z,12.40
2022-10-08T04:08:34.199Z,9.60
2022-10-08T04:09:07.188Z,12.00
2022-10-08T04:09:40.169Z,9.80
2022-10-08T04:10:13.075Z,10.70
2022-10-08T04:10:46.021Z,11.30
2022-10-08T04:11:19.727Z,11.30
2022-10-08T04:11:52.968Z,10.90
2022-10-08T04:12:25.962Z,11.60
2022-10-08T04:12:59.152Z,12.80
2022-10-08T04:13:32.856Z,14.10
2022-10-08T04:14:05.836Z,10.50
2022-10-08T04:14:38.829Z,13.00
2022-10-08T04:15:11.741Z,10.90
2022-10-08T04:15:45.872Z,11.00
2022-10-08T04:16:19.537Z,11.90
2022-10-08T04:16:53.698Z,13.00
2022-10-08T04:17:26.575Z,14.60
2022-10-08T04:17:59.512Z,12.10
2022-10-08T04:18:33.383Z,12.00
2022-10-08T04:19:06.540Z,11.20
2022-10-08T04:19:39.602Z,17.20
2022-10-08T04:20:12.594Z,13.90
2022-10-08T04:20:45.652Z,12.10
2022-10-08T04:21:19.629Z,12.40
2022-10-08T04:21:52.984Z,12.40
2022-10-08T04:22:26.164Z,10.80
2022-10-08T04:22:59.219Z,10.60
2022-10-08T04:23:33.325Z,11.60
2022-10-08T04:24:09.484Z,10.50
2022-10-08T04:24:42.549Z,12.20
2022-10-08T04:25:15.572Z,11.00
2022-10-08T04:25:52.213Z,10.50
2022-10-08T04:26:25.521Z,11.70
2022-10-08T04:26:58.514Z,11.90
2022-10-08T04:27:32.627Z,12.50
2022-10-08T04:28:05.880Z,10.10
2022-10-08T04:28:39.785Z,12.50
2022-10-08T04:29:12.867Z,10.60
2022-10-08T04:29:45.956Z,11.70
2022-10-08T04:30:19.084Z,18.10
2022-10-08T04:30:55.769Z,12.10
2022-10-08T04:31:28.901Z,10.40
2022-10-08T04:32:01.997Z,12.00
2022-10-08T04:32:35.274Z,10.90
2022-10-08T04:33:08.265Z,12.00
2022-10-08T04:33:41.297Z,12.40
2022-10-08T04:34:14.289Z,11.10
2022-10-08T04:34:47.306Z,11.60
2022-10-08T04:35:20.181Z,11.40
2022-10-08T04:35:58.936Z,12.10
2022-10-08T04:36:33.537Z,17.30
2022-10-08T04:37:06.510Z,15.00
2022-10-08T04:37:39.614Z,12.60
2022-10-08T04:38:12.684Z,12.60
2022-10-08T04:38:45.998Z,16.50
2022-10-08T04:39:19.072Z,12.90
2022-10-08T04:39:52.116Z,16.00
2022-10-08T04:40:25.134Z,12.60
2022-10-08T04:41:05.625Z,10.60
2022-10-08T04:41:38.597Z,10.60
2022-10-08T04:42:11.560Z,12.10
2022-10-08T04:42:45.090Z,11.10
2022-10-08T04:43:18.330Z,12.20
2022-10-08T04:43:52.033Z,12.20
2022-10-08T04:44:25.087Z,12.30
2022-10-08T04:44:58.065Z,11.70
2022-10-08T04:45:31.145Z,13.70
2022-10-08T04:46:04.795Z,12.10
2022-10-08T04:46:38.018Z,9.70
2022-10-08T04:47:11.016Z,12.00
2022-10-08T04:47:43.930Z,13.30
2022-10-08T04:48:16.844Z,12.30
2022-10-08T04:48:51.112Z,11.30
2022-10-08T04:49:24.994Z,11.90
2022-10-08T04:49:57.936Z,13.30
2022-10-08T04:50:31.052Z,13.30
2022-10-08T04:51:10.057Z,16.00
2022-10-08T04:51:43.655Z,12.90
2022-10-08T04:52:19.029Z,12.90
2022-10-08T04:52:51.961Z,13.90
2022-10-08T04:53:25.950Z,13.40
2022-10-08T04:53:58.809Z,14.60
2022-10-08T04:54:31.872Z,11.80
2022-10-08T04:55:05.215Z,13.10
2022-10-08T04:55:38.142Z,13.80
2022-10-08T04:56:12.997Z,13.90
2022-10-08T04:56:46.204Z,14.00
2022-10-08T04:57:19.429Z,12.20
2022-10-08T04:57:52.497Z,12.20
2022-10-08T04:58:25.857Z,16.20
2022-10-08T04:58:59.621Z,16.40
2022-10-08T04:59:32.739Z,14.50
2022-10-08T05:00:18.313Z,13.30
2022-10-08T05:00:52.133Z,12.00
2022-10-08T05:01:25.900Z,12.40
2022-10-08T05:01:58.988Z,13.20
2022-10-08T05:02:32.027Z,13.30
2022-10-08T05:03:05.234Z,11.60
2022-10-08T05:03:39.241Z,12.90
2022-10-08T05:04:12.300Z,14.60
2022-10-08T05:04:45.752Z,13.30
2022-10-08T05:05:18.652Z,16.50
2022-10-08T05:05:51.715Z,13.60
2022-10-08T05:06:27.305Z,15.60
2022-10-08T05:07:00.320Z,10.60
2022-10-08T05:07:33.229Z,12.30
2022-10-08T05:08:06.182Z,12.90
2022-10-08T05:08:39.455Z,13.50
2022-10-08T05:09:12.621Z,12.60
2022-10-08T05:09:45.759Z,13.90
2022-10-08T05:10:18.849Z,12.10
2022-10-08T05:10:51.909Z,12.30
2022-10-08T05:11:26.030Z,11.00
2022-10-08T05:11:58.913Z,13.10
2022-10-08T05:12:31.867Z,9.60
2022-10-08T05:13:04.870Z,12.20
2022-10-08T05:13:37.841Z,16.20
2022-10-08T05:14:11.204Z,11.70
2022-10-08T05:14:44.044Z,11.60
2022-10-08T05:15:17.011Z,11.50
2022-10-08T05:15:50.253Z,12.40
2022-10-08T05:16:23.879Z,11.00
2022-10-08T05:16:56.871Z,12.30
2022-10-08T05:17:29.757Z,11.00
2022-10-08T05:18:02.614Z,12.10
2022-10-08T05:18:36.457Z,11.10
2022-10-08T05:19:09.436Z,11.20
2022-10-08T05:19:42.369Z,11.10
2022-10-08T05:20:15.331Z,9.90
2022-10-08T05:20:48.317Z,10.70
2022-10-08T05:21:22.709Z,10.70
2022-10-08T05:21:55.600Z,10.30
2022-10-08T05:22:28.586Z,11.80
2022-10-08T05:23:01.589Z,13.70
2022-10-08T05:23:34.970Z,11.40
2022-10-08T05:24:09.180Z,13.10
2022-10-08T05:24:42.268Z,12.90
2022-10-08T05:25:15.160Z,14.70
2022-10-08T05:25:48.088Z,10.90
2022-10-08T05:26:35.786Z,10.90
2022-10-08T05:27:15.507Z,13.20
2022-10-08T05:27:48.486Z,11.50
2022-10-08T05:28:21.683Z,12.30
2022-10-08T05:28:56.809Z,13.70
2022-10-08T05:29:30.657Z,10.90
2022-10-08T05:30:04.212Z,11.10
2022-10-08T05:30:37.249Z,13.80
2022-10-08T05:31:10.577Z,15.80
2022-10-08T05:31:43.709Z,12.40
2022-10-08T05:32:16.675Z,10.30
2022-10-08T05:32:49.935Z,13.40
2022-10-08T05:33:23.319Z,9.00
2022-10-08T05:33:56.793Z,12.00
2022-10-08T05:34:29.663Z,10.10
2022-10-08T05:35:02.756Z,10.40
2022-10-08T05:35:37.685Z,12.40
2022-10-08T05:36:18.240Z,9.90
2022-10-08T05:36:51.617Z,9.90
2022-10-08T05:37:25.110Z,12.00
2022-10-08T05:37:58.024Z,12.30
2022-10-08T05:38:34.819Z,10.70
2022-10-08T05:39:08.397Z,11.20
2022-10-08T05:39:41.411Z,13.80
2022-10-08T05:40:14.397Z,12.20
2022-10-08T05:40:47.477Z,13.90
2022-10-08T05:41:22.044Z,12.40
2022-10-08T05:41:55.215Z,10.80
2022-10-08T05:42:28.252Z,9.80
2022-10-08T05:43:01.393Z,12.40
2022-10-08T05:43:34.754Z,13.10
2022-10-08T05:44:08.759Z,10.10
2022-10-08T05:44:45.386Z,11.40
2022-10-08T05:45:18.683Z,10.30
2022-10-08T05:45:51.738Z,9.80
2022-10-08T05:46:25.972Z,9.00
2022-10-08T05:46:58.986Z,12.50
2022-10-08T05:47:31.999Z,16.50
2022-10-08T05:48:04.896Z,13.00
2022-10-08T05:48:38.350Z,9.80
2022-10-08T05:49:16.627Z,9.00
2022-10-08T05:49:49.488Z,10.60
2022-10-08T05:50:22.532Z,12.40
2022-10-08T05:50:55.479Z,9.20
2022-10-08T05:51:29.186Z,8.90
2022-10-08T05:52:02.462Z,11.80
2022-10-08T05:52:35.480Z,14.50
2022-10-08T05:53:09.329Z,11.30
2022-10-08T05:53:44.145Z,12.50
2022-10-08T05:54:18.056Z,14.70
2022-10-08T05:54:50.933Z,11.40
2022-10-08T05:55:23.975Z,11.40
2022-10-08T05:56:03.969Z,11.80
2022-10-08T05:56:38.019Z,10.30
2022-10-08T05:57:11.301Z,11.60
2022-10-08T05:57:44.438Z,9.10
2022-10-08T05:58:17.408Z,10.70
2022-10-08T05:58:51.179Z,13.90
2022-10-08T05:59:24.740Z,15.70
2022-10-08T05:59:57.791Z,11.10
2022-10-08T06:00:30.768Z,8.70
2022-10-08T06:01:07.963Z,12.60
2022-10-08T06:01:40.991Z,10.50
2022-10-08T06:02:14.238Z,11.70
2022-10-08T06:02:49.572Z,10.40
2022-10-08T06:03:23.004Z,12.00
2022-10-08T06:03:57.623Z,13.40
2022-10-08T06:04:30.772Z,8.80
2022-10-08T06:05:04.066Z,11.50
2022-10-08T06:05:37.161Z,10.20
2022-10-08T06:06:11.579Z,11.40
2022-10-08T06:06:45.538Z,10.20
2022-10-08T06:07:18.622Z,9.60
2022-10-08T06:07:53.242Z,7.70
2022-10-08T06:08:26.253Z,15.40
2022-10-08T06:09:01.143Z,10.90
2022-10-08T06:09:34.271Z,10.10
2022-10-08T06:10:07.425Z,9.10
2022-10-08T06:10:48.377Z,9.20
2022-10-08T06:11:21.432Z,10.40
2022-10-08T06:11:54.395Z,9.90
2022-10-08T06:12:27.450Z,9.10
2022-10-08T06:13:00.451Z,7.40
2022-10-08T06:13:33.553Z,9.10
2022-10-08T06:14:10.009Z,8.80
2022-10-08T06:14:42.945Z,7.30
2022-10-08T06:15:15.902Z,7.20
2022-10-08T06:15:58.692Z,9.80
2022-10-08T06:16:32.349Z,8.90
2022-10-08T06:17:05.490Z,7.40
2022-10-08T06:17:38.495Z,10.60
2022-10-08T06:18:11.566Z,10.30
2022-10-08T06:18:44.569Z,6.60
2022-10-08T06:19:17.659Z,8.60
2022-10-08T06:19:50.662Z,8.50
2022-10-08T06:20:25.020Z,10.60
2022-10-08T06:21:08.447Z,10.70
2022-10-08T06:21:42.107Z,9.90
2022-10-08T06:22:15.645Z,7.90
2022-10-08T06:22:50.128Z,8.20
2022-10-08T06:23:25.061Z,7.50
2022-10-08T06:24:00.472Z,10.40
2022-10-08T06:24:34.029Z,8.80
2022-10-08T06:25:08.158Z,9.70
2022-10-08T06:25:41.862Z,8.80
2022-10-08T06:26:16.612Z,8.70
2022-10-08T06:26:50.204Z,8.90
2022-10-08T06:27:23.963Z,7.60
2022-10-08T06:27:57.597Z,8.80
2022-10-08T06:28:31.639Z,8.60
2022-10-08T06:29:06.740Z,11.80
2022-10-08T06:29:40.527Z,7.50
2022-10-08T06:30:14.176Z,11.40
2022-10-08T06:30:48.016Z,8.60
2022-10-08T06:31:22.036Z,8.60
2022-10-08T06:31:55.991Z,10.40
2022-10-08T06:32:30.240Z,8.80
2022-10-08T06:33:04.109Z,9.10
2022-10-08T06:33:38.218Z,7.80
2022-10-08T06:34:12.399Z,8.60
2022-10-08T06:34:46.336Z,7.00
2022-10-08T06:35:19.997Z,7.30
2022-10-08T06:35:53.886Z,7.20
2022-10-08T06:36:28.757Z,6.80
2022-10-08T06:37:02.566Z,6.50
2022-10-08T06:37:37.352Z,6.90
2022-10-08T06:38:11.057Z,9.70
2022-10-08T06:38:49.469Z,8.20
2022-10-08T06:39:23.771Z,7.90
2022-10-08T06:39:57.591Z,8.50
2022-10-08T06:40:40.563Z,6.90
2022-10-08T06:41:14.346Z,6.20
2022-10-08T06:41:48.780Z,8.70
2022-10-08T06:42:23.042Z,7.60
2022-10-08T06:42:56.922Z,7.00
2022-10-08T06:43:30.775Z,7.10
2022-10-08T06:44:05.931Z,7.80
2022-10-08T06:44:40.034Z,11.70
2022-10-08T06:45:15.094Z,8.70
2022-10-08T06:45:49.538Z,7.10
2022-10-08T06:46:24.431Z,8.60
2022-10-08T06:46:58.356Z,6.60
2022-10-08T06:47:31.709Z,7.60
2022-10-08T06:48:04.582Z,9.00
2022-10-08T06:48:37.995Z,7.30
2022-10-08T06:49:11.308Z,5.70
2022-10-08T06:49:44.381Z,9.10
2022-10-08T06:50:17.352Z,6.60
2022-10-08T06:50:57.764Z,8.80
2022-10-08T06:51:30.897Z,7.40
2022-10-08T06:52:03.924Z,6.80
2022-10-08T06:52:36.935Z,7.70
2022-10-08T06:53:11.591Z,7.80
2022-10-08T06:53:45.233Z,7.00
2022-10-08T06:54:18.472Z,6.10
2022-10-08T06:54:51.725Z,6.80
2022-10-08T06:55:24.765Z,6.90
2022-10-08T06:55:58.514Z,7.40
2022-10-08T06:56:31.905Z,7.20
2022-10-08T06:57:05.023Z,6.20
2022-10-08T06:57:38.346Z,7.80
2022-10-08T06:58:11.472Z,10.50
2022-10-08T06:58:45.252Z,10.80
2022-10-08T06:59:18.277Z,6.70
2022-10-08T06:59:54.608Z,9.80
2022-10-08T07:00:27.751Z,7.20
2022-10-08T07:01:08.251Z,6.50
2022-10-08T07:01:41.246Z,6.50
2022-10-08T07:02:14.378Z,7.10
2022-10-08T07:02:47.834Z,7.40
2022-10-08T07:03:21.071Z,6.50
2022-10-08T07:03:55.584Z,7.00
2022-10-08T07:04:28.548Z,11.90
2022-10-08T07:05:01.520Z,8.90
2022-10-08T07:05:34.579Z,9.50
2022-10-08T07:06:09.117Z,10.60
2022-10-08T07:06:42.266Z,9.80
2022-10-08T07:07:15.375Z,14.60
2022-10-08T07:07:48.526Z,13.10
2022-10-08T07:08:21.854Z,13.90
2022-10-08T07:08:55.916Z,16.40
2022-10-08T07:09:29.496Z,21.00
2022-10-08T07:10:04.135Z,23.00
2022-10-08T07:10:37.217Z,26.80
2022-10-08T07:11:11.877Z,30.00
2022-10-08T07:11:45.001Z,24.10
2022-10-08T07:12:17.960Z,24.30
2022-10-08T07:12:51.035Z,23.30
2022-10-08T07:13:24.056Z,23.30
2022-10-08T07:13:57.191Z,22.00
2022-10-08T07:14:30.360Z,18.20
2022-10-08T07:15:04.125Z,18.50
2022-10-08T07:15:37.107Z,19.50
2022-10-08T07:16:20.803Z,19.90
2022-10-08T07:16:54.227Z,22.60
2022-10-08T07:17:29.031Z,18.50
2022-10-08T07:18:02.037Z,19.30
2022-10-08T07:18:35.736Z,18.40
2022-10-08T07:19:08.902Z,19.10
2022-10-08T07:19:41.786Z,17.10
2022-10-08T07:20:14.912Z,16.20
2022-10-08T07:20:54.714Z,15.60
2022-10-08T07:21:28.192Z,15.60
2022-10-08T07:22:01.582Z,13.90
2022-10-08T07:22:35.000Z,14.30
2022-10-08T07:23:08.034Z,12.90
2022-10-08T07:23:41.330Z,11.60
2022-10-08T07:24:14.275Z,12.60
2022-10-08T07:24:47.257Z,11.00
2022-10-08T07:25:20.318Z,11.90
2022-10-08T07:26:00.753Z,10.50
2022-10-08T07:26:35.083Z,10.80
2022-10-08T07:27:07.975Z,13.30
2022-10-08T07:27:44.814Z,14.20
2022-10-08T07:28:18.341Z,10.70
2022-10-08T07:28:52.663Z,10.60
2022-10-08T07:29:26.593Z,11.80
2022-10-08T07:29:59.738Z,13.70
2022-10-08T07:30:33.412Z,10.80
2022-10-08T07:31:07.783Z,12.00
2022-10-08T07:31:41.335Z,10.70
2022-10-08T07:32:14.306Z,12.00
2022-10-08T07:32:47.572Z,9.60
2022-10-08T07:33:20.975Z,11.30
2022-10-08T07:33:54.121Z,8.30
2022-10-08T07:34:27.256Z,7.80
2022-10-08T07:35:00.352Z,7.60
2022-10-08T07:35:33.429Z,7.50
2022-10-08T07:36:17.340Z,9.90
2022-10-08T07:36:50.429Z,7.80